Time;durP1;ratioP1;P1;durP2;ratioP2;P2;SDS_P1;SDS_P2;PMS_P1;PMS_P2;Temp;Humidity;BMP_temperature;BMP_pressure;BME280_temperature;BME280_humidity;BME280_pressure;Samples;Min_cycle;Max_cycle;Signal;HPM_P1;HPM_P2
2021/06/12 00:01:52;;;;;;;15.77;11.75;;;;;;;16.56;80.93;99449.50;5025143;28;20068;-80
2021/06/12 00:04:23;;;;;;;15.27;11.52;;;;;;;16.56;80.83;99449.50;5038448;28;20041;-82
2021/06/12 00:07:09;;;;;;;16.15;11.90;;;;;;;16.60;80.68;99441.50;5039478;28;20088;-81
2021/06/12 00:09:35;;;;;;;16.15;11.50;;;;;;;16.56;80.65;99432.88;5044943;28;20045;-83
2021/06/12 00:12:01;;;;;;;14.88;11.52;;;;;;;16.48;80.96;99422.69;5024582;28;20033;-82
2021/06/12 00:14:27;;;;;;;15.70;10.77;;;;;;;16.60;80.77;99442.34;5019788;28;20045;-80
2021/06/12 00:16:52;;;;;;;17.23;10.95;;;;;;;16.65;80.72;99444.81;5028262;28;20069;-82
2021/06/12 00:19:18;;;;;;;15.13;10.75;;;;;;;16.62;80.70;99439.69;5043508;28;20053;-81
2021/06/12 00:21:44;;;;;;;14.45;10.82;;;;;;;16.53;80.47;99423.34;5051703;28;20041;-80
2021/06/12 00:24:10;;;;;;;14.18;10.73;;;;;;;16.49;80.70;99423.56;5039959;28;20041;-82
2021/06/12 00:26:37;;;;;;;16.55;11.10;;;;;;;16.62;80.58;99437.06;5023700;28;20026;-82
2021/06/12 00:29:04;;;;;;;14.90;11.73;;;;;;;16.52;80.10;99429.53;5035849;28;20045;-82
2021/06/12 00:31:30;;;;;;;16.60;11.52;;;;;;;16.55;80.58;99429.41;5032380;28;20041;-81
2021/06/12 00:33:56;;;;;;;16.48;11.05;;;;;;;16.58;80.38;99433.69;5035560;28;20037;-82
2021/06/12 00:36:22;;;;;;;14.35;11.32;;;;;;;16.58;80.32;99422.31;5035653;28;20060;-83
2021/06/12 00:38:49;;;;;;;15.60;11.13;;;;;;;16.51;80.33;99414.69;5029450;28;20500;-81
2021/06/12 00:41:16;;;;;;;14.80;11.35;;;;;;;16.42;80.50;99391.44;5022217;28;20063;-83
2021/06/12 00:43:43;;;;;;;14.15;11.30;;;;;;;16.56;80.40;99415.38;5030600;28;20048;-83
2021/06/12 00:46:09;;;;;;;15.65;11.82;;;;;;;16.51;80.40;99406.81;5030571;28;20068;-84
2021/06/12 00:48:36;;;;;;;17.90;11.90;;;;;;;16.55;80.37;99423.31;5031849;28;20099;-80
2021/06/12 00:51:03;;;;;;;14.48;11.48;;;;;;;16.55;80.33;99418.91;5013574;28;20037;-82
2021/06/12 00:53:42;;;;;;;17.98;11.70;;;;;;;16.56;80.21;99411.88;5028408;28;20104;-82
2021/06/12 00:56:11;;;;;;;17.35;11.63;;;;;;;16.43;80.42;99395.78;5013782;28;20501;-81
2021/06/12 00:58:42;;;;;;;15.68;11.35;;;;;;;16.55;80.23;99407.56;5015735;28;20088;-84
2021/06/12 01:01:10;;;;;;;15.43;11.60;;;;;;;16.46;80.09;99395.63;5033917;28;20076;-83
2021/06/12 01:03:39;;;;;;;17.10;12.82;;;;;;;16.47;80.01;99399.13;5016401;28;20037;-81
2021/06/12 01:06:10;;;;;;;16.88;11.60;;;;;;;16.60;80.09;99412.63;5017396;28;20629;-80
2021/06/12 01:08:37;;;;;;;16.67;12.45;;;;;;;16.48;79.98;99403.47;5033863;28;20091;-81
2021/06/12 01:11:05;;;;;;;18.58;12.52;;;;;;;16.67;80.15;99421.94;5035054;28;20041;-82
2021/06/12 01:13:39;;;;;;;17.30;12.52;;;;;;;16.67;80.17;99416.69;5034303;28;20103;-82
2021/06/12 01:16:13;;;;;;;20.90;13.15;;;;;;;16.69;79.97;99420.13;5019058;28;20038;-84
2021/06/12 01:18:43;;;;;;;18.63;12.80;;;;;;;16.70;79.95;99416.56;5035529;28;20060;-81
2021/06/12 01:21:37;;;;;;;18.97;12.80;;;;;;;16.54;79.82;99395.34;5035105;28;20037;-81
2021/06/12 01:24:39;;;;;;;18.45;13.27;;;;;;;16.71;79.96;99418.28;5021862;28;20073;-80
2021/06/12 01:27:15;;;;;;;;;;;;;;;16.71;80.04;99413.91;5039086;28;20049;-82
2021/06/12 01:30:02;;;;;;;17.20;11.52;;;;;;;16.72;80.02;99409.47;5000237;28;20428;-81
2021/06/12 01:32:31;;;;;;;19.15;12.98;;;;;;;16.71;79.94;99402.53;5033392;28;20398;-82
2021/06/12 01:35:04;;;;;;;17.27;12.75;;;;;;;16.74;79.79;99410.28;5016329;28;20408;-85
2021/06/12 01:37:33;;;;;;;18.30;13.43;;;;;;;16.78;79.58;99411.88;5034186;28;20493;-83
2021/06/12 01:40:01;;;;;;;18.70;13.30;;;;;;;16.79;79.72;99413.59;5002546;28;20041;-83
2021/06/12 01:42:28;;;;;;;20.40;13.05;;;;;;;16.76;79.52;99404.97;5033588;28;20045;-83
2021/06/12 01:44:54;;;;;;;21.02;13.77;;;;;;;16.59;78.95;99382.84;5033746;28;20551;-81
2021/06/12 01:47:20;;;;;;;21.42;14.45;;;;;;;16.68;79.63;99398.25;5033979;28;20132;-81
2021/06/12 01:49:49;;;;;;;19.58;14.15;;;;;;;16.67;79.56;99399.19;5033740;28;20609;-82
2021/06/12 01:52:16;;;;;;;19.75;14.30;;;;;;;16.73;79.74;99408.56;5035075;28;20038;-82
2021/06/12 01:54:43;;;;;;;22.70;13.52;;;;;;;16.69;79.55;99399.97;5034322;28;20041;-81
2021/06/12 01:57:10;;;;;;;20.92;14.05;;;;;;;16.74;79.73;99412.91;5037605;28;20043;-81
2021/06/12 01:59:38;;;;;;;19.80;14.23;;;;;;;16.74;79.59;99415.53;5033278;28;20037;-82
2021/06/12 02:02:05;;;;;;;18.80;13.50;;;;;;;16.75;79.44;99412.00;5047906;28;20457;-81
2021/06/12 02:04:31;;;;;;;19.05;13.95;;;;;;;16.76;79.48;99418.97;5032178;28;20420;-81
2021/06/12 02:07:02;;;;;;;17.42;12.93;;;;;;;16.79;79.43;99403.06;5028365;28;20091;-81
2021/06/12 02:09:32;;;;;;;18.58;13.02;;;;;;;16.61;79.47;99370.53;5012934;28;20050;-81
2021/06/12 02:11:59;;;;;;;19.92;13.98;;;;;;;16.92;79.29;99419.19;4995821;28;20524;-82
2021/06/12 02:14:26;;;;;;;19.42;14.32;;;;;;;16.95;79.39;99411.22;5016871;28;20124;-80
2021/06/12 02:16:53;;;;;;;19.35;13.27;;;;;;;16.89;79.47;99390.41;5028005;28;20041;-82
2021/06/12 02:19:20;;;;;;;23.60;14.30;;;;;;;17.02;79.13;99410.03;5011685;28;20049;-80
2021/06/12 02:21:48;;;;;;;18.90;12.93;;;;;;;17.00;78.95;99405.75;5013148;28;20545;-80
2021/06/12 02:24:13;;;;;;;20.13;13.77;;;;;;;16.96;78.93;99391.91;5031287;28;20045;-82
2021/06/12 02:26:44;;;;;;;20.98;14.00;;;;;;;16.93;79.15;99383.25;5031019;28;20044;-81
2021/06/12 02:29:12;;;;;;;19.55;14.60;;;;;;;17.04;78.89;99409.97;5032832;28;20168;-81
2021/06/12 02:32:06;;;;;;;22.48;15.48;;;;;;;17.04;78.90;99404.72;5016888;28;20498;-81
2021/06/12 02:34:33;;;;;;;19.42;14.68;;;;;;;17.06;79.01;99405.50;5033845;28;20159;-83
2021/06/12 02:37:00;;;;;;;21.15;15.82;;;;;;;17.07;78.75;99406.34;5029671;28;20029;-83
2021/06/12 02:39:26;;;;;;;21.75;15.93;;;;;;;17.08;78.87;99403.69;5013349;28;20224;-82
2021/06/12 02:41:52;;;;;;;23.45;16.25;;;;;;;17.08;78.76;99408.06;5029489;28;20045;-80
2021/06/12 02:44:18;;;;;;;28.13;17.52;;;;;;;17.13;78.86;99403.47;5032601;28;20049;-81
2021/06/12 02:46:45;;;;;;;24.40;17.13;;;;;;;17.12;78.78;99407.03;5031315;28;20489;-81
2021/06/12 02:49:15;;;;;;;25.00;17.20;;;;;;;17.16;78.53;99417.34;5034037;28;20467;-82
2021/06/12 02:51:47;;;;;;;26.40;17.45;;;;;;;17.07;78.62;99415.13;5014956;28;20132;-83
2021/06/12 02:54:14;;;;;;;24.05;17.08;;;;;;;17.09;78.87;99410.66;5031008;28;20658;-84
2021/06/12 02:56:42;;;;;;;25.98;17.90;;;;;;;17.13;78.68;99408.72;5019178;28;20048;-82
2021/06/12 02:59:12;;;;;;;24.85;17.05;;;;;;;17.17;78.72;99415.56;5034391;28;20397;-80
2021/06/12 03:01:41;;;;;;;26.30;16.60;;;;;;;17.16;78.20;99416.50;5032732;28;20052;-82
2021/06/12 03:04:10;;;;;;;22.60;15.68;;;;;;;17.15;78.33;99413.00;5023203;28;20047;-81
2021/06/12 03:06:38;;;;;;;25.48;16.13;;;;;;;17.19;78.46;99415.50;5031042;28;20041;-82
2021/06/12 03:09:05;;;;;;;21.77;15.05;;;;;;;17.26;78.65;99422.22;5031579;28;20192;-83
2021/06/12 03:11:34;;;;;;;24.83;16.10;;;;;;;17.28;77.45;99418.59;5031957;28;20048;-80
2021/06/12 03:14:02;;;;;;;21.98;15.77;;;;;;;17.27;78.31;99422.13;5015758;28;20045;-82
2021/06/12 03:16:28;;;;;;;21.55;15.48;;;;;;;17.29;78.29;99414.19;5016944;28;20611;-82
2021/06/12 03:18:56;;;;;;;20.52;15.73;;;;;;;17.27;78.09;99405.53;5036260;28;20037;-80
2021/06/12 03:21:25;;;;;;;26.45;16.20;;;;;;;17.29;77.77;99409.78;5032021;28;20059;-83
2021/06/12 03:23:52;;;;;;;20.33;15.02;;;;;;;17.29;78.14;99404.53;5031474;28;20041;-83
2021/06/12 03:26:19;;;;;;;22.00;15.77;;;;;;;17.33;77.96;99402.59;5029670;28;20132;-81
2021/06/12 03:28:45;;;;;;;22.80;15.55;;;;;;;17.37;77.98;99396.31;5030604;28;20041;-79
2021/06/12 03:31:11;;;;;;;21.48;15.00;;;;;;;17.48;78.29;99405.50;5030290;28;20049;-80
2021/06/12 03:33:40;;;;;;;20.92;14.52;;;;;;;17.48;78.02;99393.19;5031236;28;20127;-80
2021/06/12 03:36:07;;;;;;;22.70;14.95;;;;;;;17.60;77.99;99402.31;5029435;28;20048;-81
2021/06/12 03:38:35;;;;;;;22.48;14.38;;;;;;;17.55;77.84;99386.75;5025904;28;20488;-82
2021/06/12 03:41:02;;;;;;;19.63;13.95;;;;;;;17.61;77.67;99397.00;5016918;28;20037;-82
2021/06/12 03:43:29;;;;;;;21.42;14.57;;;;;;;17.66;77.53;99396.81;5031771;28;20126;-81
2021/06/12 03:45:58;;;;;;;23.65;15.88;;;;;;;17.64;77.48;99397.81;5029256;28;20048;-82
2021/06/12 03:48:25;;;;;;;25.27;15.95;;;;;;;17.59;77.26;99398.84;5029838;28;20076;-83
2021/06/12 03:50:52;;;;;;;28.83;17.27;;;;;;;17.53;77.52;99393.03;5031048;28;20041;-81
2021/06/12 03:53:20;;;;;;;30.70;18.25;;;;;;;17.55;77.35;99393.78;5029265;28;20048;-81
2021/06/12 03:55:49;;;;;;;30.05;18.73;;;;;;;17.63;77.48;99401.34;5030992;28;20094;-82
2021/06/12 03:58:16;;;;;;;33.90;19.52;;;;;;;17.57;76.37;99387.53;5013383;28;20350;-83
2021/06/12 04:00:44;;;;;;;36.00;19.98;;;;;;;17.66;76.64;99407.31;5031555;28;20045;-83
2021/06/12 04:03:10;;;;;;;31.73;20.63;;;;;;;17.50;76.89;99406.31;5052885;28;20041;-84
2021/06/12 04:05:36;;;;;;;34.33;20.15;;;;;;;17.47;77.05;99409.91;5038119;28;20041;-81
2021/06/12 04:08:02;;;;;;;34.88;20.17;;;;;;;17.44;76.89;99396.88;5035566;28;20047;-81
2021/06/12 04:10:28;;;;;;;33.03;19.60;;;;;;;17.68;77.52;99401.97;5033222;28;20041;-81
2021/06/12 04:12:54;;;;;;;34.95;20.05;;;;;;;17.75;76.73;99404.28;5043940;28;20068;-84
2021/06/12 04:15:20;;;;;;;39.38;21.77;;;;;;;17.80;76.26;99413.72;5031823;28;20505;-83
2021/06/12 04:17:46;;;;;;;34.05;21.65;;;;;;;17.70;75.85;99408.91;4999863;28;20042;-82
2021/06/12 04:20:14;;;;;;;36.65;21.85;;;;;;;17.67;76.33;99398.50;5012512;28;20050;-83
2021/06/12 04:22:40;;;;;;;35.78;19.95;;;;;;;17.82;77.34;99401.38;5023012;28;20388;-82
2021/06/12 04:25:07;;;;;;;34.50;19.92;;;;;;;17.98;77.19;99380.47;5032691;28;20088;-81
2021/06/12 04:27:33;;;;;;;40.67;21.92;;;;;;;18.18;76.77;99390.13;5031824;28;20178;-83
2021/06/12 04:30:00;;;;;;;33.92;20.42;;;;;;;18.17;76.57;99369.97;5016687;28;20050;-80
2021/06/12 04:32:26;;;;;;;35.45;21.23;;;;;;;18.46;76.54;99387.03;5017343;28;20135;-82
2021/06/12 04:34:52;;;;;;;36.13;21.83;;;;;;;18.68;76.06;99393.88;5034725;28;20084;-81
2021/06/12 04:37:18;;;;;;;36.75;21.55;;;;;;;18.72;75.84;99397.22;5054450;28;20037;-81
2021/06/12 04:39:44;;;;;;;35.60;20.27;;;;;;;18.78;75.45;99384.56;5025759;28;20052;-80
2021/06/12 04:42:10;;;;;;;37.88;20.00;;;;;;;18.89;75.43;99389.31;5033742;28;20037;-82
2021/06/12 04:44:36;;;;;;;34.17;20.77;;;;;;;18.89;75.26;99391.94;5035143;28;20041;-82
2021/06/12 04:47:03;;;;;;;30.65;19.13;;;;;;;18.94;74.66;99383.84;5037736;28;20098;-82
2021/06/12 04:49:32;;;;;;;31.15;19.88;;;;;;;18.89;73.80;99367.38;5022838;28;20563;-81
2021/06/12 04:51:58;;;;;;;35.60;21.02;;;;;;;19.10;74.47;99382.16;5031270;28;20049;-81
2021/06/12 04:54:24;;;;;;;33.03;20.08;;;;;;;19.31;74.29;99391.69;5029736;28;20038;-81
2021/06/12 04:56:50;;;;;;;31.25;18.98;;;;;;;19.33;73.89;99371.34;4997117;28;20449;-81
2021/06/12 04:59:16;;;;;;;27.50;17.70;;;;;;;19.67;73.81;99391.53;5028168;28;20120;-81
2021/06/12 05:01:42;;;;;;;29.05;18.58;;;;;;;19.76;73.29;99371.69;5044617;28;20137;-80
2021/06/12 05:04:07;;;;;;;25.02;16.38;;;;;;;19.95;72.46;99376.88;5027853;28;20045;-80
2021/06/12 05:06:33;;;;;;;29.48;17.48;;;;;;;19.88;71.94;99351.72;5026622;28;20045;-85
2021/06/12 05:08:59;;;;;;;30.30;18.70;;;;;;;20.07;71.89;99375.34;5034043;28;20041;-82
2021/06/12 05:11:26;;;;;;;31.52;19.48;;;;;;;20.06;71.29;99378.09;5016821;28;20131;-83
2021/06/12 05:13:53;;;;;;;33.97;19.88;;;;;;;20.02;71.41;99375.63;5018998;28;20489;-83
2021/06/12 05:16:19;;;;;;;28.80;19.25;;;;;;;19.98;71.08;99352.06;5032082;28;20072;-82
2021/06/12 05:18:45;;;;;;;28.20;17.88;;;;;;;20.14;70.85;99360.88;5032935;28;20045;-82
2021/06/12 05:21:15;;;;;;;28.05;18.30;;;;;;;20.40;70.77;99369.13;5016395;28;20083;-84
2021/06/12 05:23:41;;;;;;;27.50;17.25;;;;;;;20.52;70.44;99345.56;5012896;28;20064;-83
2021/06/12 05:26:07;;;;;;;27.35;16.63;;;;;;;20.62;69.99;99329.09;5013750;28;20086;-84
2021/06/12 05:28:34;;;;;;;25.67;16.70;;;;;;;20.83;69.60;99335.91;5013733;28;20132;-83
2021/06/12 05:31:03;;;;;;;23.77;16.23;;;;;;;21.11;69.28;99348.34;5013684;28;20056;-83
2021/06/12 05:33:33;;;;;;;26.70;17.73;;;;;;;21.32;69.07;99351.47;4996542;28;20086;-83
2021/06/12 05:36:01;;;;;;;24.07;16.30;;;;;;;21.45;68.43;99318.97;5013233;28;20037;-82
2021/06/12 05:38:26;;;;;;;23.90;16.55;;;;;;;21.73;67.56;99343.78;5024689;28;20155;-81
2021/06/12 05:40:54;;;;;;;22.45;15.70;;;;;;;21.75;67.11;99341.84;5018729;28;20125;-83
2021/06/12 05:43:20;;;;;;;24.70;16.60;;;;;;;21.60;66.32;99352.44;5034287;28;20049;-83
2021/06/12 05:45:46;;;;;;;22.92;16.42;;;;;;;21.30;66.01;99323.41;5015735;28;20049;-84
2021/06/12 05:48:12;;;;;;;23.23;16.80;;;;;;;21.25;66.16;99339.56;5033175;28;20059;-83
2021/06/12 05:50:38;;;;;;;26.58;17.85;;;;;;;21.21;65.96;99346.81;5033191;28;20052;-83
2021/06/12 05:53:03;;;;;;;24.58;16.88;;;;;;;21.20;66.50;99342.47;5036273;28;20056;-83
2021/06/12 05:55:30;;;;;;;26.77;17.60;;;;;;;21.25;66.41;99328.13;5033563;28;20033;-84
2021/06/12 05:57:57;;;;;;;23.92;17.83;;;;;;;21.52;66.34;99350.25;5015738;28;20037;-81
2021/06/12 06:00:23;;;;;;;23.88;17.35;;;;;;;21.77;66.12;99327.59;5035573;28;20049;-81
2021/06/12 06:02:49;;;;;;;24.25;16.83;;;;;;;22.11;65.38;99327.22;5033239;28;20125;-82
2021/06/12 06:05:15;;;;;;;24.63;17.45;;;;;;;22.27;65.07;99335.88;5032487;28;20136;-81
2021/06/12 06:07:41;;;;;;;21.90;16.58;;;;;;;22.26;63.87;99344.78;5037384;28;20095;-84
2021/06/12 06:10:07;;;;;;;22.45;17.40;;;;;;;22.01;63.78;99326.09;5014613;28;20053;-81
2021/06/12 06:12:34;;;;;;;23.05;18.02;;;;;;;21.94;63.73;99341.53;5013700;28;20242;-82
2021/06/12 06:15:01;;;;;;;26.92;19.73;;;;;;;21.59;63.75;99342.78;5020440;28;20046;-82
2021/06/12 06:17:28;;;;;;;27.58;19.58;;;;;;;21.41;64.36;99320.94;5027775;28;20049;-81
2021/06/12 06:19:54;;;;;;;28.38;20.42;;;;;;;21.77;64.46;99338.19;4996423;28;20042;-80
2021/06/12 06:22:20;;;;;;;24.85;19.38;;;;;;;22.11;64.45;99333.38;5018201;28;20041;-82
2021/06/12 06:24:46;;;;;;;27.52;19.83;;;;;;;22.75;64.34;99325.75;5031336;28;20176;-83
2021/06/12 06:27:12;;;;;;;23.65;18.02;;;;;;;23.44;62.98;99329.03;5028568;28;20086;-79
2021/06/12 06:29:38;;;;;;;25.63;18.05;;;;;;;23.70;61.31;99317.50;5017267;28;20132;-83
2021/06/12 06:32:05;;;;;;;24.25;18.70;;;;;;;23.87;60.72;99305.69;5021337;28;20092;-81
2021/06/12 06:34:31;;;;;;;27.73;19.60;;;;;;;24.29;60.35;99315.94;5032083;28;20045;-82
2021/06/12 06:36:57;;;;;;;25.33;19.75;;;;;;;26.90;59.79;99307.09;5011115;28;20069;-81
2021/06/12 06:39:23;;;;;;;22.23;17.85;;;;;;;29.45;55.53;99291.41;5016846;28;20069;-82
2021/06/12 06:41:49;;;;;;;20.50;16.35;;;;;;;30.56;49.84;99296.75;5025605;28;20521;-83
2021/06/12 06:44:15;;;;;;;20.08;15.85;;;;;;;31.55;49.61;99267.84;5050701;28;20085;-83
2021/06/12 06:46:41;;;;;;;19.98;15.80;;;;;;;31.96;45.35;99284.13;5018454;28;20077;-81
2021/06/12 06:49:07;;;;;;;16.67;14.57;;;;;;;30.87;42.42;99288.28;5034617;28;20459;-79
2021/06/12 06:51:33;;;;;;;17.45;15.40;;;;;;;29.89;44.53;99279.16;5049422;28;20037;-80
2021/06/12 06:53:59;;;;;;;20.60;17.65;;;;;;;29.09;44.60;99298.41;5034006;28;20041;-78
2021/06/12 06:56:25;;;;;;;18.38;16.40;;;;;;;28.35;45.70;99290.88;5035411;28;20048;-77
2021/06/12 06:58:51;;;;;;;19.05;17.05;;;;;;;27.63;46.31;99279.47;5017789;28;20047;-79
2021/06/12 07:01:17;;;;;;;22.13;18.42;;;;;;;27.03;47.98;99297.03;5035003;28;20128;-78
2021/06/12 07:03:44;;;;;;;21.05;18.83;;;;;;;27.47;48.83;99288.84;5031713;28;20504;-80
2021/06/12 07:06:10;;;;;;;21.15;17.58;;;;;;;28.64;47.73;99283.81;5032488;28;20135;-78
2021/06/12 07:08:39;;;;;;;19.67;16.55;;;;;;;31.67;45.73;99284.47;5041486;28;20120;-78
2021/06/12 07:11:05;;;;;;;17.50;14.50;;;;;;;34.07;42.49;99265.34;5041166;28;20175;-80
2021/06/12 07:13:34;;;;;;;18.83;14.60;;;;;;;35.14;39.55;99263.56;5034707;28;20046;-78
2021/06/12 07:16:00;;;;;;;13.88;12.43;;;;;;;36.71;36.64;99265.91;5043457;28;20052;-77
2021/06/12 07:18:26;;;;;;;20.23;15.00;;;;;;;36.24;35.05;99260.91;5066192;28;20049;-78
2021/06/12 07:20:54;;;;;;;18.98;13.88;;;;;;;36.02;34.41;99262.78;5019649;28;20041;-78
2021/06/12 07:23:20;;;;;;;14.30;12.90;;;;;;;36.06;33.93;99261.38;5021842;28;20095;-79
2021/06/12 07:25:47;;;;;;;16.65;14.88;;;;;;;35.16;34.09;99247.16;5053157;28;20385;-78
2021/06/12 07:28:14;;;;;;;15.82;14.25;;;;;;;34.88;33.92;99245.09;5046781;28;20119;-77
2021/06/12 07:30:42;;;;;;;20.38;17.13;;;;;;;33.95;34.43;99264.94;5025074;28;20037;-78
2021/06/12 07:33:09;;;;;;;19.08;17.20;;;;;;;33.16;35.55;99258.50;5046671;28;20048;-78
2021/06/12 07:35:35;;;;;;;19.70;17.67;;;;;;;32.67;35.92;99256.75;5054987;28;20045;-78
2021/06/12 07:38:04;;;;;;;16.92;15.27;;;;;;;33.41;36.03;99260.31;5031364;28;20043;-78
2021/06/12 07:40:31;;;;;;;16.92;15.23;;;;;;;33.57;35.30;99249.44;4999177;28;20501;-79
2021/06/12 07:42:57;;;;;;;17.48;15.35;;;;;;;33.47;34.83;99255.06;5046336;28;20045;-79
2021/06/12 07:45:24;;;;;;;21.58;16.63;;;;;;;33.40;34.97;99258.63;5047095;28;20432;-80
2021/06/12 07:47:50;;;;;;;17.15;15.18;;;;;;;34.05;34.79;99259.28;5033058;28;20049;-79
2021/06/12 07:50:17;;;;;;;16.95;13.38;;;;;;;33.71;35.20;99261.34;5015624;28;20033;-79
2021/06/12 07:52:43;;;;;;;17.70;14.70;;;;;;;33.67;34.21;99256.44;5031024;28;20037;-78
2021/06/12 07:55:10;;;;;;;15.82;14.32;;;;;;;32.44;33.76;99254.75;5031610;28;20087;-79
2021/06/12 07:57:37;;;;;;;14.85;13.07;;;;;;;31.53;36.69;99259.09;5047245;28;20048;-79
2021/06/12 08:00:05;;;;;;;16.98;13.60;;;;;;;31.54;36.83;99261.59;5031842;28;20037;-79
2021/06/12 08:02:38;;;;;;;16.40;14.00;;;;;;;31.78;36.71;99268.09;5033529;28;20132;-81
2021/06/12 08:05:05;;;;;;;15.52;13.95;;;;;;;31.91;36.12;99251.50;5050385;28;20045;-80
2021/06/12 08:07:32;;;;;;;13.95;12.38;;;;;;;32.25;34.68;99261.25;5033008;28;20044;-79
2021/06/12 08:10:00;;;;;;;14.48;11.63;;;;;;;32.18;35.78;99259.41;5035351;28;20045;-79
2021/06/12 08:12:27;;;;;;;12.73;10.88;;;;;;;32.23;35.53;99265.13;5032913;28;20527;-79
2021/06/12 08:14:53;;;;;;;12.15;10.95;;;;;;;31.72;35.69;99259.84;5033221;28;20042;-79
2021/06/12 08:17:19;;;;;;;12.80;11.55;;;;;;;30.86;35.47;99281.22;5030145;28;20037;-79
2021/06/12 08:19:44;;;;;;;14.50;12.70;;;;;;;29.18;37.31;99264.56;5015955;28;20046;-80
2021/06/12 08:22:13;;;;;;;14.63;12.32;;;;;;;28.52;40.25;99272.41;5014320;28;20096;-81
2021/06/12 08:24:39;;;;;;;14.90;12.73;;;;;;;28.32;41.32;99275.09;5013138;28;20132;-79
2021/06/12 08:27:06;;;;;;;11.40;9.63;;;;;;;28.40;41.30;99277.91;5014966;28;20501;-81
2021/06/12 08:29:32;;;;;;;13.93;10.32;;;;;;;28.48;40.86;99284.38;5014782;28;20041;-80
2021/06/12 08:31:57;;;;;;;13.45;11.85;;;;;;;28.46;41.04;99278.34;5031157;28;20505;-81
2021/06/12 08:34:24;;;;;;;14.73;12.93;;;;;;;28.37;41.68;99282.69;5012886;28;20140;-80
2021/06/12 08:36:50;;;;;;;14.95;13.35;;;;;;;28.60;41.66;99269.00;5015243;28;20096;-77
2021/06/12 08:39:16;;;;;;;14.77;12.35;;;;;;;29.28;41.24;99265.34;5014044;28;20030;-79
2021/06/12 08:41:43;;;;;;;14.32;12.73;;;;;;;29.90;40.25;99254.88;5027508;28;20194;-80
2021/06/12 08:44:12;;;;;;;14.13;12.25;;;;;;;30.13;39.93;99254.44;5038568;28;20048;-78
2021/06/12 08:46:40;;;;;;;13.43;12.13;;;;;;;29.76;39.62;99263.44;5035873;28;20061;-79
2021/06/12 08:49:06;;;;;;;12.80;11.13;;;;;;;28.97;40.26;99262.94;5034480;28;20148;-77
2021/06/12 08:51:34;;;;;;;15.32;11.23;;;;;;;28.47;40.84;99267.50;5033799;28;20037;-78
2021/06/12 08:54:06;;;;;;;13.70;12.23;;;;;;;28.07;41.11;99265.78;5016510;28;20389;-79
2021/06/12 08:56:32;;;;;;;13.63;10.70;;;;;;;27.48;41.86;99258.50;5033855;28;20389;-79
2021/06/12 08:58:58;;;;;;;12.20;10.90;;;;;;;27.35;42.82;99272.03;5033629;28;20124;-77
2021/06/12 09:01:24;;;;;;;14.57;11.75;;;;;;;27.24;42.20;99269.47;5015697;28;20045;-78
2021/06/12 09:03:51;;;;;;;16.50;11.85;;;;;;;27.43;42.89;99262.53;5033646;28;20037;-78
2021/06/12 09:06:21;;;;;;;15.98;10.52;;;;;;;27.22;43.10;99271.44;5033484;28;20048;-78
2021/06/12 09:08:47;;;;;;;14.95;11.05;;;;;;;26.86;43.46;99268.28;5033803;28;20034;-79
2021/06/12 09:11:16;;;;;;;14.93;10.75;;;;;;;26.63;43.73;99265.72;5027327;28;20052;-77
2021/06/12 09:13:58;;;;;;;15.18;10.13;;;;;;;26.52;44.19;99274.63;5026089;28;20504;-77
2021/06/12 09:16:33;;;;;;;15.55;10.32;;;;;;;26.28;44.58;99257.03;5019012;28;20051;-78
2021/06/12 09:19:08;;;;;;;14.20;10.05;;;;;;;26.39;45.06;99280.16;5016492;28;20576;-79
2021/06/12 09:21:41;;;;;;;12.38;10.35;;;;;;;26.11;45.24;99282.44;5033735;28;20479;-79
2021/06/12 09:24:32;;;;;;;10.13;9.00;;;;;;;25.45;45.46;99285.94;5017391;28;20051;-79
2021/06/12 09:27:04;;;;;;;10.75;9.35;;;;;;;24.97;46.42;99263.00;5013087;28;20065;-79
2021/06/12 09:29:48;;;;;;;10.35;9.25;;;;;;;24.73;47.37;99274.56;5002625;28;20043;-79
2021/06/12 09:32:20;;;;;;;10.20;9.18;;;;;;;24.71;48.09;99281.84;5034238;28;20045;-79
2021/06/12 09:34:48;;;;;;;10.65;9.55;;;;;;;24.48;48.15;99271.09;5034733;28;20041;-78
2021/06/12 09:37:18;;;;;;;11.10;10.00;;;;;;;24.48;48.63;99284.41;5017307;28;20056;-78
2021/06/12 09:40:06;;;;;;;12.98;11.32;;;;;;;24.41;48.80;99280.50;5021710;28;20037;-79
2021/06/12 09:42:56;;;;;;;11.27;10.07;;;;;;;24.52;49.59;99282.34;5028702;28;20431;-79
2021/06/12 09:45:34;;;;;;;12.18;10.13;;;;;;;24.56;49.08;99272.31;5035869;28;20052;-79
2021/06/12 09:48:11;;;;;;;17.77;14.52;;;;;;;24.34;49.12;99277.47;5031157;28;20041;-80
2021/06/12 09:50:38;;;;;;;12.73;11.35;;;;;;;24.19;49.85;99274.13;5032190;28;20121;-80
2021/06/12 09:53:14;;;;;;;14.82;12.50;;;;;;;24.13;49.94;99260.44;5030824;28;20554;-78
2021/06/12 09:55:41;;;;;;;15.07;12.02;;;;;;;24.13;49.77;99257.78;5028158;28;20776;-78
2021/06/12 09:58:07;;;;;;;11.63;10.40;;;;;;;24.28;49.85;99271.72;5022496;28;20080;-78
2021/06/12 10:00:37;;;;;;;11.90;10.50;;;;;;;24.09;50.08;99272.25;5032951;28;20037;-78
2021/06/12 10:03:16;;;;;;;13.50;11.82;;;;;;;24.18;50.26;99271.56;5032482;28;20045;-79
2021/06/12 10:05:43;;;;;;;11.48;10.18;;;;;;;24.46;50.76;99264.19;5036760;28;20045;-79
2021/06/12 10:08:11;;;;;;;12.80;10.05;;;;;;;24.71;49.86;99259.69;5031520;28;20046;-79
2021/06/12 10:10:38;;;;;;;13.82;11.30;;;;;;;24.59;49.98;99245.50;5033930;28;20037;-79
2021/06/12 10:13:05;;;;;;;12.43;10.20;;;;;;;24.83;49.84;99241.94;5012994;28;20042;-79
2021/06/12 10:15:32;;;;;;;11.93;9.82;;;;;;;24.92;49.14;99249.22;5026215;28;20404;-79
2021/06/12 10:17:59;;;;;;;11.30;9.95;;;;;;;24.65;49.32;99226.41;5026042;28;20488;-78
2021/06/12 10:20:25;;;;;;;11.13;9.98;;;;;;;24.67;50.03;99249.25;5012443;28;20512;-79
2021/06/12 10:22:54;;;;;;;12.68;10.13;;;;;;;24.78;49.75;99250.28;5048608;28;20067;-79
2021/06/12 10:25:22;;;;;;;11.40;10.23;;;;;;;24.69;50.18;99232.34;5031766;28;20093;-78
2021/06/12 10:27:48;;;;;;;11.93;9.85;;;;;;;24.94;49.69;99253.44;5009973;28;20045;-79
2021/06/12 10:30:18;;;;;;;11.25;10.10;;;;;;;24.95;49.88;99236.53;5011834;28;20463;-79
2021/06/12 10:32:46;;;;;;;13.60;10.73;;;;;;;25.30;49.15;99233.84;5022434;28;20531;-79
2021/06/12 10:35:17;;;;;;;11.98;10.52;;;;;;;25.58;48.85;99221.88;5031273;28;20045;-81
2021/06/12 10:38:02;;;;;;;10.55;9.55;;;;;;;25.97;47.46;99229.38;5031694;28;20033;-77
2021/06/12 10:40:41;;;;;;;11.38;10.20;;;;;;;26.16;47.40;99226.09;5014027;28;20057;-79
2021/06/12 10:43:18;;;;;;;11.48;10.00;;;;;;;26.18;47.44;99213.47;5014021;28;20571;-79
2021/06/12 10:45:47;;;;;;;9.85;8.95;;;;;;;26.71;46.51;99225.03;5029428;28;20053;-78
2021/06/12 10:48:52;;;;;;;15.27;9.80;;;;;;;27.00;45.15;99211.06;5031373;28;20048;-79
2021/06/12 10:51:27;;;;;;;11.60;10.40;;;;;;;27.42;45.01;99202.91;5031388;28;20088;-79
2021/06/12 10:54:11;;;;;;;12.23;10.32;;;;;;;27.87;44.09;99201.63;5031913;28;20052;-79
2021/06/12 10:56:45;;;;;;;11.63;9.93;;;;;;;28.22;43.41;99194.88;5031608;28;20124;-79
2021/06/12 10:59:14;;;;;;;12.10;10.90;;;;;;;28.08;42.61;99189.94;5013567;28;20037;-79
2021/06/12 11:02:02;;;;;;;11.68;10.50;;;;;;;27.72;42.81;99173.59;5031798;28;20049;-78
2021/06/12 11:04:52;;;;;;;11.00;9.90;;;;;;;27.56;43.23;99195.53;5035609;28;20037;-80
2021/06/12 11:07:27;;;;;;;11.25;9.85;;;;;;;27.40;43.06;99190.69;5033377;28;20084;-79
2021/06/12 11:10:15;;;;;;;11.20;10.05;;;;;;;27.32;43.18;99175.34;5034037;28;20104;-80
2021/06/12 11:12:57;;;;;;;11.77;10.57;;;;;;;27.47;43.25;99183.84;5031870;28;20048;-79
2021/06/12 11:15:23;;;;;;;13.02;10.77;;;;;;;27.58;42.98;99180.22;5032624;28;20045;-81
2021/06/12 11:18:18;;;;;;;11.75;10.65;;;;;;;27.77;43.12;99174.88;5014518;28;20060;-76
2021/06/12 11:21:02;;;;;;;12.38;10.63;;;;;;;27.82;42.39;99161.09;5010027;28;20068;-79
2021/06/12 11:23:48;;;;;;;12.77;11.48;;;;;;;27.65;42.67;99159.94;5010034;28;20128;-79
2021/06/12 11:26:14;;;;;;;12.25;10.95;;;;;;;27.19;42.46;99159.56;5019041;28;20068;-79